Time;durP1;ratioP1;P1;durP2;ratioP2;P2;SDS_P1;SDS_P2;PMS_P1;PMS_P2;Temp;Humidity;BMP_temperature;BMP_pressure;BME280_temperature;BME280_humidity;BME280_pressure;Samples;Min_cycle;Max_cycle;Signal;HPM_P1;HPM_P2
2023/03/28 00:00:33;;;;;;;4.05;2.13;;;;;;;;;;4996478;28;20201;-68
2023/03/28 00:03:01;;;;;;;5.43;2.45;;;;;;;;;;5008398;28;20201;-68
2023/03/28 00:05:30;;;;;;;15.02;3.05;;;;;;;;;;5016030;28;20205;-69
2023/03/28 00:07:58;;;;;;;6.22;2.40;;;;;;;;;;5016578;28;20234;-69
2023/03/28 00:10:26;;;;;;;12.45;2.35;;;;;;;;;;5002612;28;20234;-68
2023/03/28 00:12:53;;;;;;;4.07;2.08;;;;;;;;;;4997020;28;20278;-69
2023/03/28 00:15:21;;;;;;;5.38;2.75;;;;;;;;;;4996925;28;20211;-69
2023/03/28 00:17:51;;;;;;;4.95;2.30;;;;;;;;;;4996023;28;20226;-69
2023/03/28 00:20:18;;;;;;;8.10;2.20;;;;;;;;;;4996441;28;20249;-69
2023/03/28 00:22:48;;;;;;;6.00;2.65;;;;;;;;;;4995949;28;20209;-69
2023/03/28 00:25:15;;;;;;;9.10;2.70;;;;;;;;;;4996821;28;20291;-69
2023/03/28 00:27:42;;;;;;;7.03;2.92;;;;;;;;;;4996199;28;20209;-70
2023/03/28 00:30:10;;;;;;;7.00;2.20;;;;;;;;;;4996450;28;20196;-69
2023/03/28 00:32:37;;;;;;;10.75;2.40;;;;;;;;;;4996211;28;20530;-69
2023/03/28 00:35:05;;;;;;;2.63;2.38;;;;;;;;;;4996016;28;20230;-69
2023/03/28 00:37:32;;;;;;;10.88;2.42;;;;;;;;;;4995776;28;20715;-69
2023/03/28 00:40:00;;;;;;;8.18;2.80;;;;;;;;;;4995996;28;20294;-69
2023/03/28 00:42:27;;;;;;;4.68;2.58;;;;;;;;;;4995126;28;20298;-69
2023/03/28 00:44:55;;;;;;;5.20;2.45;;;;;;;;;;4995559;28;20209;-69
2023/03/28 00:47:35;;;;;;;7.43;2.08;;;;;;;;;;4995830;28;20302;-70
2023/03/28 00:50:05;;;;;;;5.20;2.25;;;;;;;;;;4995939;28;20641;-69
2023/03/28 00:52:38;;;;;;;5.80;2.10;;;;;;;;;;4995907;28;20204;-69
2023/03/28 00:55:09;;;;;;;3.28;2.25;;;;;;;;;;4996061;28;20207;-69
2023/03/28 00:57:37;;;;;;;16.73;3.20;;;;;;;;;;4995752;28;20224;-69
2023/03/28 01:00:06;;;;;;;11.23;3.40;;;;;;;;;;4995527;28;20207;-69
2023/03/28 01:02:33;;;;;;;11.27;2.92;;;;;;;;;;4998457;28;20720;-69
2023/03/28 01:05:02;;;;;;;12.35;3.65;;;;;;;;;;4995797;28;20199;-69
2023/03/28 01:07:34;;;;;;;5.32;2.70;;;;;;;;;;4995265;28;20207;-69
2023/03/28 01:10:02;;;;;;;5.43;2.05;;;;;;;;;;5005914;28;20678;-69
2023/03/28 01:12:32;;;;;;;6.05;1.90;;;;;;;;;;4995473;28;20679;-69
2023/03/28 01:15:00;;;;;;;4.57;2.20;;;;;;;;;;4994942;28;20741;-70
2023/03/28 01:17:29;;;;;;;8.48;3.33;;;;;;;;;;4995662;28;20278;-69
2023/03/28 01:20:01;;;;;;;4.28;1.92;;;;;;;;;;4994921;28;20279;-69
2023/03/28 01:22:45;;;;;;;6.38;2.58;;;;;;;;;;4995431;28;20235;-69
2023/03/28 01:25:23;;;;;;;6.60;2.40;;;;;;;;;;4995252;28;20191;-69
2023/03/28 01:28:00;;;;;;;7.68;2.45;;;;;;;;;;4995707;28;20194;-68
2023/03/28 01:30:36;;;;;;;8.23;2.80;;;;;;;;;;4995491;28;20186;-69
2023/03/28 01:33:17;;;;;;;5.22;2.55;;;;;;;;;;4994789;28;20195;-70
2023/03/28 01:36:08;;;;;;;13.07;2.80;;;;;;;;;;4994516;28;20241;-69
2023/03/28 01:38:40;;;;;;;6.90;2.65;;;;;;;;;;4940098;28;20228;-70
2023/03/28 01:41:10;;;;;;;8.57;2.83;;;;;;;;;;4994807;28;20290;-69
2023/03/28 01:43:43;;;;;;;8.13;2.63;;;;;;;;;;4994865;28;20195;-70
2023/03/28 01:46:15;;;;;;;9.50;2.95;;;;;;;;;;4994521;28;20226;-69
2023/03/28 01:48:46;;;;;;;7.57;2.33;;;;;;;;;;4995215;28;20647;-70
2023/03/28 01:51:21;;;;;;;6.22;2.97;;;;;;;;;;4995204;28;20191;-69
2023/03/28 01:53:53;;;;;;;2.78;1.90;;;;;;;;;;4994771;28;20274;-70
2023/03/28 01:56:23;;;;;;;4.75;2.47;;;;;;;;;;4995109;28;20200;-69
2023/03/28 01:58:55;;;;;;;8.40;2.58;;;;;;;;;;4994953;28;20218;-70
2023/03/28 02:01:25;;;;;;;7.03;2.65;;;;;;;;;;4994948;28;20242;-69
2023/03/28 02:03:53;;;;;;;9.73;2.75;;;;;;;;;;4997639;28;20203;-69
2023/03/28 02:06:21;;;;;;;9.73;2.70;;;;;;;;;;4994327;28;20682;-69
2023/03/28 02:08:50;;;;;;;6.85;2.47;;;;;;;;;;4996834;28;20264;-69
2023/03/28 02:11:19;;;;;;;9.45;2.63;;;;;;;;;;5013811;28;20301;-70
2023/03/28 02:13:49;;;;;;;5.78;2.30;;;;;;;;;;5013670;28;20240;-69
2023/03/28 02:16:17;;;;;;;5.95;2.70;;;;;;;;;;5014123;28;20194;-70
2023/03/28 02:18:48;;;;;;;11.35;3.80;;;;;;;;;;5013506;28;20222;-69
2023/03/28 02:21:17;;;;;;;5.78;2.50;;;;;;;;;;5013851;28;20194;-69
2023/03/28 02:23:46;;;;;;;13.57;3.67;;;;;;;;;;5013952;28;20194;-69
2023/03/28 02:26:14;;;;;;;6.75;2.33;;;;;;;;;;5013430;28;20260;-69
2023/03/28 02:28:43;;;;;;;4.10;2.22;;;;;;;;;;5013749;28;20205;-69
2023/03/28 02:31:12;;;;;;;6.18;2.40;;;;;;;;;;5013640;28;20292;-69
2023/03/28 02:33:40;;;;;;;10.82;2.60;;;;;;;;;;5013419;28;20655;-69
2023/03/28 02:36:12;;;;;;;4.13;3.38;;;;;;;;;;5013134;28;20226;-69
2023/03/28 02:38:44;;;;;;;5.45;2.90;;;;;;;;;;5013436;28;20714;-69
2023/03/28 02:41:14;;;;;;;10.77;2.65;;;;;;;;;;5013812;28;20198;-69
2023/03/28 02:43:51;;;;;;;5.55;2.80;;;;;;;;;;5013432;28;20198;-69
2023/03/28 02:46:29;;;;;;;7.20;3.05;;;;;;;;;;5013773;28;20200;-69
2023/03/28 02:49:11;;;;;;;7.18;3.00;;;;;;;;;;5014016;28;20238;-69
2023/03/28 02:51:40;;;;;;;7.70;2.25;;;;;;;;;;5001184;28;20198;-69
2023/03/28 02:54:20;;;;;;;11.98;3.03;;;;;;;;;;5013577;28;20641;-69
2023/03/28 02:56:52;;;;;;;12.57;3.08;;;;;;;;;;5013567;28;20208;-68
2023/03/28 02:59:23;;;;;;;4.35;2.00;;;;;;;;;;5013679;28;20222;-69
2023/03/28 03:01:50;;;;;;;7.07;2.65;;;;;;;;;;5009104;28;20201;-70
2023/03/28 03:04:18;;;;;;;6.40;3.03;;;;;;;;;;4994257;28;20302;-69
2023/03/28 03:06:47;;;;;;;4.35;2.97;;;;;;;;;;4997310;28;20206;-69
2023/03/28 03:09:14;;;;;;;12.55;3.35;;;;;;;;;;5000885;28;20222;-69
2023/03/28 03:11:42;;;;;;;7.97;2.75;;;;;;;;;;4997778;28;20563;-69
2023/03/28 03:14:12;;;;;;;10.27;2.95;;;;;;;;;;4998178;28;20542;-69
2023/03/28 03:16:41;;;;;;;7.43;2.75;;;;;;;;;;4997298;28;20679;-69
2023/03/28 03:19:09;;;;;;;6.60;2.95;;;;;;;;;;4997434;28;20226;-69
2023/03/28 03:21:36;;;;;;;10.68;3.00;;;;;;;;;;4997457;28;20511;-69
2023/03/28 03:24:04;;;;;;;11.23;3.25;;;;;;;;;;4997107;28;20254;-69
2023/03/28 03:26:31;;;;;;;12.25;3.05;;;;;;;;;;4997022;28;20203;-69
2023/03/28 03:28:59;;;;;;;6.88;3.03;;;;;;;;;;4997307;28;20294;-69
2023/03/28 03:31:26;;;;;;;5.53;3.30;;;;;;;;;;4996866;28;20202;-69
2023/03/28 03:33:55;;;;;;;7.30;2.70;;;;;;;;;;4996975;28;20207;-69
2023/03/28 03:36:22;;;;;;;8.23;3.15;;;;;;;;;;4997470;28;20234;-70
2023/03/28 03:38:51;;;;;;;7.82;2.60;;;;;;;;;;4997101;28;20257;-69
2023/03/28 03:41:18;;;;;;;9.07;2.95;;;;;;;;;;4996805;28;20357;-69
2023/03/28 03:43:45;;;;;;;10.63;3.13;;;;;;;;;;4996843;28;20206;-69
2023/03/28 03:46:13;;;;;;;14.73;4.00;;;;;;;;;;4997038;28;20630;-69
2023/03/28 03:48:40;;;;;;;6.80;2.53;;;;;;;;;;4997050;28;20533;-69
2023/03/28 03:51:09;;;;;;;9.68;3.15;;;;;;;;;;4997235;28;20673;-69
2023/03/28 03:53:37;;;;;;;9.57;3.22;;;;;;;;;;4996871;28;20195;-68
2023/03/28 03:56:05;;;;;;;9.38;2.75;;;;;;;;;;4996463;28;20198;-69
2023/03/28 03:58:33;;;;;;;17.00;4.75;;;;;;;;;;5011958;28;21123;-69
2023/03/28 04:01:00;;;;;;;10.27;3.35;;;;;;;;;;5015774;28;20284;-69
2023/03/28 04:03:27;;;;;;;5.05;2.92;;;;;;;;;;5015935;28;20690;-69
2023/03/28 04:05:56;;;;;;;6.35;2.65;;;;;;;;;;5016276;28;20201;-69
2023/03/28 04:08:25;;;;;;;14.82;3.58;;;;;;;;;;5016290;28;20256;-69
2023/03/28 04:10:52;;;;;;;11.10;3.10;;;;;;;;;;5015861;28;20209;-69
2023/03/28 04:13:19;;;;;;;9.15;3.70;;;;;;;;;;5016169;28;20198;-69
2023/03/28 04:15:47;;;;;;;8.07;3.35;;;;;;;;;;5014683;28;20206;-69
2023/03/28 04:18:16;;;;;;;9.65;3.30;;;;;;;;;;5016098;28;20261;-70
2023/03/28 04:20:45;;;;;;;7.88;3.35;;;;;;;;;;5015789;28;20239;-70
2023/03/28 04:23:13;;;;;;;7.00;3.00;;;;;;;;;;5015525;28;20206;-69
2023/03/28 04:25:41;;;;;;;5.00;3.15;;;;;;;;;;5016019;28;20228;-71
2023/03/28 04:28:09;;;;;;;7.63;2.67;;;;;;;;;;5015693;28;20203;-69
2023/03/28 04:30:37;;;;;;;10.35;3.00;;;;;;;;;;5015795;28;20307;-69
2023/03/28 04:33:04;;;;;;;13.18;3.78;;;;;;;;;;5015552;28;20234;-69
2023/03/28 04:35:35;;;;;;;8.15;2.92;;;;;;;;;;5015492;28;20230;-68
2023/03/28 04:38:02;;;;;;;12.52;3.42;;;;;;;;;;5014618;28;20229;-69
2023/03/28 04:40:29;;;;;;;3.85;2.53;;;;;;;;;;5015429;28;20226;-79
2023/03/28 04:42:58;;;;;;;10.10;3.70;;;;;;;;;;5015047;28;20220;-70
2023/03/28 04:45:25;;;;;;;9.77;3.45;;;;;;;;;;5015481;28;20203;-70
2023/03/28 04:47:52;;;;;;;5.15;3.97;;;;;;;;;;5014960;28;20197;-70
2023/03/28 04:50:20;;;;;;;6.30;2.78;;;;;;;;;;5015020;28;20208;-70
2023/03/28 04:52:47;;;;;;;7.25;2.88;;;;;;;;;;5014817;28;20673;-70
2023/03/28 04:55:15;;;;;;;6.43;4.85;;;;;;;;;;5015660;28;20207;-70
2023/03/28 04:57:43;;;;;;;16.80;5.55;;;;;;;;;;5015317;28;20200;-70
2023/03/28 05:00:15;;;;;;;4.82;3.13;;;;;;;;;;5015158;28;20228;-70
2023/03/28 05:02:42;;;;;;;5.63;3.45;;;;;;;;;;5015132;28;20192;-70
2023/03/28 05:05:09;;;;;;;9.85;3.53;;;;;;;;;;5014848;28;20194;-70
2023/03/28 05:07:37;;;;;;;7.20;3.63;;;;;;;;;;5014685;28;20671;-70
2023/03/28 05:10:05;;;;;;;9.52;3.50;;;;;;;;;;5015021;28;20208;-70
2023/03/28 05:12:32;;;;;;;8.10;4.25;;;;;;;;;;5015082;28;20272;-70
2023/03/28 05:14:59;;;;;;;7.72;4.35;;;;;;;;;;5015238;28;20203;-70
2023/03/28 05:17:27;;;;;;;12.90;5.10;;;;;;;;;;5014731;28;20200;-70
2023/03/28 05:19:55;;;;;;;11.82;4.43;;;;;;;;;;5014980;28;20233;-70
2023/03/28 05:22:22;;;;;;;6.30;3.70;;;;;;;;;;5014743;28;20197;-70
2023/03/28 05:24:49;;;;;;;15.55;4.25;;;;;;;;;;5014422;28;20196;-70
2023/03/28 05:27:17;;;;;;;8.07;4.10;;;;;;;;;;5014007;28;20204;-70
2023/03/28 05:29:44;;;;;;;15.70;5.07;;;;;;;;;;5014801;28;20355;-70
2023/03/28 05:32:12;;;;;;;12.82;5.10;;;;;;;;;;5015251;28;20204;-70
2023/03/28 05:34:41;;;;;;;12.55;5.38;;;;;;;;;;5014225;28;20225;-70
2023/03/28 05:37:08;;;;;;;9.82;4.55;;;;;;;;;;5014491;28;20558;-70
2023/03/28 05:39:35;;;;;;;11.85;5.07;;;;;;;;;;5014467;28;20228;-70
2023/03/28 05:42:02;;;;;;;11.48;4.88;;;;;;;;;;5014410;28;20201;-70
2023/03/28 05:44:30;;;;;;;20.15;6.80;;;;;;;;;;5014960;28;20193;-70
2023/03/28 05:46:57;;;;;;;17.88;6.05;;;;;;;;;;5014439;28;20197;-70
2023/03/28 05:49:24;;;;;;;17.17;6.90;;;;;;;;;;5014335;28;20307;-69
2023/03/28 05:51:53;;;;;;;13.63;5.30;;;;;;;;;;5014338;28;20197;-70
2023/03/28 05:54:20;;;;;;;18.88;5.30;;;;;;;;;;5013836;28;20304;-70
2023/03/28 05:56:47;;;;;;;12.73;6.97;;;;;;;;;;5014028;28;20199;-70
2023/03/28 05:59:17;;;;;;;10.18;5.18;;;;;;;;;;5014644;28;20256;-70
2023/03/28 06:01:45;;;;;;;10.82;6.22;;;;;;;;;;5014168;28;20283;-70
2023/03/28 06:04:12;;;;;;;9.57;6.68;;;;;;;;;;5013885;28;20233;-70
2023/03/28 06:06:40;;;;;;;11.93;6.80;;;;;;;;;;5013661;28;20196;-69
2023/03/28 06:09:11;;;;;;;17.13;6.32;;;;;;;;;;5013995;28;20567;-70
2023/03/28 06:11:38;;;;;;;9.18;6.80;;;;;;;;;;5014075;28;20194;-70
2023/03/28 06:14:05;;;;;;;10.57;5.82;;;;;;;;;;5013573;28;20206;-70
2023/03/28 06:16:33;;;;;;;13.98;7.13;;;;;;;;;;5014224;28;20604;-70
2023/03/28 06:19:00;;;;;;;19.38;7.22;;;;;;;;;;5013741;28;20313;-69
2023/03/28 06:21:27;;;;;;;14.18;7.35;;;;;;;;;;5013492;28;20663;-69
2023/03/28 06:23:55;;;;;;;18.67;7.75;;;;;;;;;;5013438;28;20205;-70
2023/03/28 06:26:23;;;;;;;19.92;7.80;;;;;;;;;;5013716;28;20198;-69
2023/03/28 06:28:50;;;;;;;13.48;6.82;;;;;;;;;;5013764;28;20291;-69
2023/03/28 06:31:18;;;;;;;17.98;8.50;;;;;;;;;;5014037;28;20203;-70
2023/03/28 06:33:45;;;;;;;8.95;5.97;;;;;;;;;;5013757;28;20205;-71
2023/03/28 06:36:13;;;;;;;14.85;10.13;;;;;;;;;;5013245;28;20304;-70
2023/03/28 06:38:40;;;;;;;16.95;9.45;;;;;;;;;;5012998;28;20537;-70
2023/03/28 06:41:07;;;;;;;9.85;7.00;;;;;;;;;;5013690;28;20201;-69
2023/03/28 06:43:36;;;;;;;11.40;7.50;;;;;;;;;;5013561;28;20203;-70
2023/03/28 06:46:03;;;;;;;12.57;6.95;;;;;;;;;;5013311;28;20209;-69
2023/03/28 06:48:30;;;;;;;12.52;7.78;;;;;;;;;;5013790;28;20210;-70
2023/03/28 06:50:58;;;;;;;19.20;6.90;;;;;;;;;;5014125;28;20238;-69
2023/03/28 06:53:25;;;;;;;12.70;8.05;;;;;;;;;;5013406;28;20292;-69
2023/03/28 06:55:53;;;;;;;7.78;6.40;;;;;;;;;;5014029;28;20224;-69
2023/03/28 06:58:20;;;;;;;16.42;7.38;;;;;;;;;;5013459;28;20202;-69
2023/03/28 07:00:49;;;;;;;16.52;6.68;;;;;;;;;;5013572;28;20221;-69
2023/03/28 07:03:16;;;;;;;13.52;7.13;;;;;;;;;;5013318;28;20204;-69
2023/03/28 07:05:43;;;;;;;10.45;5.85;;;;;;;;;;5013667;28;20204;-69
2023/03/28 07:08:12;;;;;;;11.63;6.30;;;;;;;;;;5013666;28;20214;-69
2023/03/28 07:10:40;;;;;;;11.75;6.15;;;;;;;;;;5013868;28;20226;-69
2023/03/28 07:13:08;;;;;;;16.10;7.68;;;;;;;;;;5013480;28;20300;-69
2023/03/28 07:15:35;;;;;;;10.18;6.07;;;;;;;;;;5013244;28;20682;-69
2023/03/28 07:18:04;;;;;;;11.02;6.45;;;;;;;;;;5013275;28;20207;-69
2023/03/28 07:20:31;;;;;;;20.38;6.95;;;;;;;;;;5013459;28;20222;-70
2023/03/28 07:22:59;;;;;;;15.63;6.55;;;;;;;;;;5013251;28;20195;-69
2023/03/28 07:25:26;;;;;;;12.35;6.25;;;;;;;;;;5012910;28;20241;-69
2023/03/28 07:27:53;;;;;;;11.52;6.45;;;;;;;;;;5013211;28;20205;-69
2023/03/28 07:30:21;;;;;;;9.15;6.20;;;;;;;;;;5012778;28;20658;-69
2023/03/28 07:32:48;;;;;;;7.50;5.80;;;;;;;;;;5013129;28;20225;-69
2023/03/28 07:35:16;;;;;;;17.55;6.50;;;;;;;;;;5012753;28;20235;-69
2023/03/28 07:37:44;;;;;;;10.50;5.57;;;;;;;;;;5012770;28;20200;-69
2023/03/28 07:40:12;;;;;;;10.95;4.80;;;;;;;;;;5012951;28;20251;-69
2023/03/28 07:42:39;;;;;;;12.73;6.35;;;;;;;;;;5013342;28;20204;-69
2023/03/28 07:45:06;;;;;;;9.65;5.28;;;;;;;;;;5012911;28;20201;-70
2023/03/28 07:47:33;;;;;;;8.82;5.25;;;;;;;;;;5012772;28;20203;-69
2023/03/28 07:50:01;;;;;;;9.85;5.70;;;;;;;;;;5013463;28;20652;-69
2023/03/28 07:52:29;;;;;;;10.13;5.32;;;;;;;;;;5016647;28;20199;-69
2023/03/28 07:54:56;;;;;;;8.45;6.35;;;;;;;;;;5016402;28;20212;-69
2023/03/28 07:57:24;;;;;;;10.18;5.53;;;;;;;;;;5016588;28;20193;-69
2023/03/28 07:59:51;;;;;;;8.82;5.68;;;;;;;;;;5016262;28;20232;-69
2023/03/28 08:02:18;;;;;;;6.97;5.03;;;;;;;;;;5015323;28;20210;-69
2023/03/28 08:04:45;;;;;;;6.07;5.03;;;;;;;;;;5015872;28;20201;-69
2023/03/28 08:07:14;;;;;;;10.77;6.10;;;;;;;;;;5016243;28;20198;-69
2023/03/28 08:09:42;;;;;;;15.57;6.10;;;;;;;;;;5016104;28;20202;-69
2023/03/28 08:12:10;;;;;;;8.32;5.70;;;;;;;;;;5016162;28;20547;-69
2023/03/28 08:14:37;;;;;;;10.80;6.40;;;;;;;;;;5016400;28;20556;-69
2023/03/28 08:17:04;;;;;;;9.68;4.88;;;;;;;;;;5016054;28;20202;-69
2023/03/28 08:19:31;;;;;;;8.65;4.97;;;;;;;;;;5015571;28;20231;-69
2023/03/28 08:22:06;;;;;;;11.98;5.18;;;;;;;;;;5015779;28;20673;-69
2023/03/28 08:24:33;;;;;;;12.13;4.72;;;;;;;;;;5015566;28;20193;-69
2023/03/28 08:27:02;;;;;;;5.70;4.38;;;;;;;;;;5015585;28;20605;-68
2023/03/28 08:29:29;;;;;;;13.15;4.72;;;;;;;;;;5015732;28;20234;-71
2023/03/28 08:31:57;;;;;;;9.75;5.07;;;;;;;;;;5015806;28;20206;-69
2023/03/28 08:34:24;;;;;;;12.80;6.22;;;;;;;;;;5015583;28;20207;-69
2023/03/28 08:36:51;;;;;;;7.32;4.60;;;;;;;;;;5015868;28;20184;-70
2023/03/28 08:39:19;;;;;;;7.43;4.20;;;;;;;;;;5015436;28;20651;-69
2023/03/28 08:41:52;;;;;;;11.20;4.35;;;;;;;;;;5015499;28;20341;-70
2023/03/28 08:44:37;;;;;;;6.63;3.60;;;;;;;;;;5015566;28;20188;-69
2023/03/28 08:47:05;;;;;;;8.43;4.10;;;;;;;;;;5015274;28;20271;-69
2023/03/28 08:49:34;;;;;;;8.77;4.35;;;;;;;;;;5015635;28;20204;-69
2023/03/28 08:52:04;;;;;;;8.23;4.00;;;;;;;;;;5015397;28;20204;-69
2023/03/28 08:54:33;;;;;;;8.63;3.95;;;;;;;;;;5015273;28;20200;-69
2023/03/28 08:57:02;;;;;;;8.43;3.92;;;;;;;;;;5014985;28;20210;-69
2023/03/28 08:59:31;;;;;;;9.32;2.90;;;;;;;;;;5015787;28;20203;-69
2023/03/28 09:01:59;;;;;;;11.05;3.50;;;;;;;;;;5014561;28;20211;-69
2023/03/28 09:04:28;;;;;;;5.72;3.28;;;;;;;;;;5014912;28;20652;-69
2023/03/28 09:06:59;;;;;;;7.93;2.90;;;;;;;;;;5015330;28;20192;-69
2023/03/28 09:09:35;;;;;;;7.32;2.92;;;;;;;;;;5014989;28;20282;-71
2023/03/28 09:12:08;;;;;;;8.90;3.17;;;;;;;;;;5015734;28;20280;-69
2023/03/28 09:14:57;;;;;;;5.20;2.78;;;;;;;;;;5014983;28;20195;-69
2023/03/28 09:17:33;;;;;;;6.47;2.85;;;;;;;;;;5014722;28;20194;-69
2023/03/28 09:20:11;;;;;;;8.52;2.40;;;;;;;;;;5015189;28;20305;-69
2023/03/28 09:22:44;;;;;;;7.13;2.30;;;;;;;;;;5015176;28;20230;-69
2023/03/28 09:25:26;;;;;;;6.63;2.80;;;;;;;;;;5014468;28;20184;-69
2023/03/28 09:27:56;;;;;;;6.90;2.42;;;;;;;;;;5015161;28;20188;-69
2023/03/28 09:30:25;;;;;;;12.05;2.83;;;;;;;;;;5014848;28;20242;-69
2023/03/28 09:32:57;;;;;;;6.82;2.83;;;;;;;;;;5014645;28;20640;-69
2023/03/28 09:35:24;;;;;;;3.13;2.10;;;;;;;;;;5014198;28;20224;-69
2023/03/28 09:37:53;;;;;;;2.90;1.95;;;;;;;;;;5014297;28;20207;-69
2023/03/28 09:40:23;;;;;;;4.45;2.00;;;;;;;;;;5014440;28;20224;-70
2023/03/28 09:42:55;;;;;;;3.70;2.30;;;;;;;;;;5014718;28;20200;-70
2023/03/28 09:45:31;;;;;;;3.13;1.85;;;;;;;;;;5014107;28;20191;-71
2023/03/28 09:48:00;;;;;;;4.07;2.20;;;;;;;;;;5015270;28;20188;-69
2023/03/28 09:50:28;;;;;;;3.60;2.08;;;;;;;;;;5014502;28;20200;-69
2023/03/28 09:52:56;;;;;;;13.88;2.53;;;;;;;;;;5014090;28;20203;-69
2023/03/28 09:55:24;;;;;;;9.48;2.55;;;;;;;;;;5014259;28;20200;-69
2023/03/28 09:58:02;;;;;;;6.55;2.20;;;;;;;;;;5014285;28;20282;-69
2023/03/28 10:00:29;;;;;;;4.40;2.30;;;;;;;;;;5014024;28;20314;-69
2023/03/28 10:02:56;;;;;;;7.53;3.67;;;;;;;;;;5014186;28;20195;-69
2023/03/28 10:05:34;;;;;;;7.32;2.92;;;;;;;;;;5014414;28;20200;-69
2023/03/28 10:08:03;;;;;;;6.30;2.20;;;;;;;;;;5013871;28;20187;-69
2023/03/28 10:10:31;;;;;;;3.83;2.05;;;;;;;;;;5013624;28;20211;-69
2023/03/28 10:12:58;;;;;;;5.47;1.90;;;;;;;;;;5013831;28;20584;-70
2023/03/28 10:15:39;;;;;;;8.73;2.40;;;;;;;;;;5013278;28;20199;-69
2023/03/28 10:18:07;;;;;;;4.75;2.00;;;;;;;;;;5014102;28;20279;-69
2023/03/28 10:20:37;;;;;;;7.57;2.13;;;;;;;;;;5013976;28;20231;-69
2023/03/28 10:23:05;;;;;;;8.13;2.15;;;;;;;;;;5014152;28;20184;-69
2023/03/28 10:25:37;;;;;;;4.55;1.90;;;;;;;;;;5013406;28;20206;-69
2023/03/28 10:28:05;;;;;;;9.77;2.53;;;;;;;;;;5013841;28;20227;-69
2023/03/28 10:30:33;;;;;;;2.58;1.60;;;;;;;;;;5013770;28;20559;-69
2023/03/28 10:33:20;;;;;;;5.05;1.98;;;;;;;;;;5013684;28;20290;-69
2023/03/28 10:35:56;;;;;;;4.90;1.85;;;;;;;;;;5013437;28;20235;-69
2023/03/28 10:38:24;;;;;;;2.58;1.67;;;;;;;;;;5014322;28;20180;-69
2023/03/28 10:40:52;;;;;;;3.45;2.40;;;;;;;;;;5013574;28;20311;-69
2023/03/28 10:43:20;;;;;;;2.70;2.50;;;;;;;;;;5013698;28;20198;-69
2023/03/28 10:45:49;;;;;;;11.07;3.80;;;;;;;;;;5013590;28;20612;-70
2023/03/28 10:48:17;;;;;;;3.47;2.13;;;;;;;;;;5013332;28;20453;-69
2023/03/28 10:50:46;;;;;;;11.52;3.03;;;;;;;;;;5013582;28;20200;-70
2023/03/28 10:53:28;;;;;;;4.07;2.03;;;;;;;;;;5013508;28;20200;-69
2023/03/28 10:56:07;;;;;;;4.05;2.60;;;;;;;;;;5014200;28;20442;-69
2023/03/28 10:58:35;;;;;;;3.83;2.00;;;;;;;;;;5013546;28;20235;-69
2023/03/28 11:01:06;;;;;;;6.38;2.08;;;;;;;;;;5013336;28;20234;-69
2023/03/28 11:03:39;;;;;;;6.20;2.97;;;;;;;;;;5013133;28;20200;-69
2023/03/28 11:06:10;;;;;;;3.80;2.30;;;;;;;;;;5013889;28;20544;-71
2023/03/28 11:08:42;;;;;;;3.75;2.05;;;;;;;;;;5013923;28;20267;-69
2023/03/28 11:11:15;;;;;;;13.05;2.55;;;;;;;;;;5013291;28;20287;-69
2023/03/28 11:13:46;;;;;;;4.68;2.22;;;;;;;;;;5013337;28;20192;-69
2023/03/28 11:16:20;;;;;;;5.35;2.55;;;;;;;;;;5013581;28;20188;-69
2023/03/28 11:18:58;;;;;;;2.92;1.98;;;;;;;;;;5013808;28;20275;-69
2023/03/28 11:21:28;;;;;;;6.07;3.35;;;;;;;;;;5013274;28;20215;-69
2023/03/28 11:24:11;;;;;;;3.35;3.00;;;;;;;;;;5013338;28;20200;-69
2023/03/28 11:26:45;;;;;;;5.22;2.67;;;;;;;;;;5016126;28;20192;-69
2023/03/28 11:29:21;;;;;;;6.10;2.87;;;;;;;;;;5017052;28;20543;-69
2023/03/28 11:31:51;;;;;;;5.03;3.20;;;;;;;;;;5017397;28;20457;-69
2023/03/28 11:34:22;;;;;;;4.20;3.05;;;;;;;;;;5016384;28;20203;-69
2023/03/28 11:36:52;;;;;;;4.72;3.50;;;;;;;;;;5016625;28;20633;-69
2023/03/28 11:39:25;;;;;;;4.68;3.00;;;;;;;;;;5016437;28;20672;-69
2023/03/28 11:41:53;;;;;;;4.72;3.63;;;;;;;;;;5016868;28;20222;-69
2023/03/28 11:44:23;;;;;;;6.93;3.38;;;;;;;;;;5016819;28;20196;-69
2023/03/28 11:46:53;;;;;;;8.90;2.93;;;;;;;;;;5016562;28;20657;-69
2023/03/28 11:49:22;;;;;;;9.80;5.47;;;;;;;;;;5016965;28;20428;-69
2023/03/28 11:51:53;;;;;;;7.50;3.73;;;;;;;;;;5016563;28;20439;-69
2023/03/28 11:54:25;;;;;;;5.00;2.93;;;;;;;;;;5016254;28;20431;-69
2023/03/28 11:56:55;;;;;;;5.23;3.13;;;;;;;;;;5016107;28;20971;-69
2023/03/28 11:59:25;;;;;;;7.43;3.20;;;;;;;;;;5016948;28;20493;-69
2023/03/28 12:01:55;;;;;;;7.00;3.33;;;;;;;;;;5016520;28;20310;-69
2023/03/28 12:04:26;;;;;;;6.97;3.90;;;;;;;;;;5015975;28;20284;-69
2023/03/28 12:06:58;;;;;;;10.33;2.87;;;;;;;;;;5016042;28;20454;-69
2023/03/28 12:09:31;;;;;;;10.13;4.47;;;;;;;;;;5016608;28;20432;-69
2023/03/28 12:12:01;;;;;;;7.67;2.83;;;;;;;;;;5016617;28;20436;-69
2023/03/28 12:14:35;;;;;;;3.77;2.70;;;;;;;;;;5016354;28;20458;-69
2023/03/28 12:17:04;;;;;;;14.93;3.23;;;;;;;;;;5016188;28;20437;-69
2023/03/28 12:19:33;;;;;;;5.33;2.70;;;;;;;;;;5016135;28;20443;-69
2023/03/28 12:22:03;;;;;;;4.33;2.83;;;;;;;;;;5016071;28;20486;-69
2023/03/28 12:24:36;;;;;;;7.57;2.80;;;;;;;;;;5015730;28;20943;-69
2023/03/28 12:27:05;;;;;;;10.40;3.00;;;;;;;;;;5015935;28;20442;-69
2023/03/28 12:29:36;;;;;;;4.13;2.57;;;;;;;;;;5015849;28;20445;-69
2023/03/28 12:32:06;;;;;;;7.90;3.00;;;;;;;;;;5015693;28;20455;-69
2023/03/28 12:34:38;;;;;;;5.50;2.60;;;;;;;;;;5015442;28;20475;-69
2023/03/28 12:37:10;;;;;;;5.40;2.87;;;;;;;;;;5014690;28;20271;-69
2023/03/28 12:39:43;;;;;;;8.60;3.30;;;;;;;;;;5015325;28;20979;-70
2023/03/28 12:42:12;;;;;;;11.23;2.43;;;;;;;;;;5015905;28;20475;-70
2023/03/28 12:44:42;;;;;;;7.00;2.50;;;;;;;;;;5015618;28;20788;-69
2023/03/28 12:47:12;;;;;;;13.37;2.90;;;;;;;;;;5015511;28;20459;-70
2023/03/28 12:49:42;;;;;;;5.33;2.80;;;;;;;;;;5015520;28;20899;-70
2023/03/28 12:52:13;;;;;;;5.43;2.30;;;;;;;;;;5015067;28;20459;-69
2023/03/28 12:54:55;;;;;;;5.67;2.67;;;;;;;;;;5015669;28;20790;-69
2023/03/28 12:57:39;;;;;;;5.73;2.60;;;;;;;;;;5015615;28;20485;-70
2023/03/28 13:00:15;;;;;;;4.10;2.80;;;;;;;;;;5015240;28;20835;-68
2023/03/28 13:02:45;;;;;;;3.10;2.50;;;;;;;;;;5015336;28;20497;-72
2023/03/28 13:05:15;;;;;;;5.30;1.93;;;;;;;;;;5015789;28;20443;-70
2023/03/28 13:07:51;;;;;;;4.47;2.20;;;;;;;;;;5015084;28;20449;-71
2023/03/28 13:10:23;;;;;;;4.05;2.05;;;;;;;;;;5015224;28;20642;-69
2023/03/28 13:12:56;;;;;;;7.80;2.50;;;;;;;;;;5015011;28;20193;-70
2023/03/28 13:15:28;;;;;;;4.47;2.30;;;;;;;;;;5015407;28;20435;-70
2023/03/28 13:18:14;;;;;;;3.17;2.87;;;;;;;;;;5014898;28;20447;-70
2023/03/28 13:20:45;;;;;;;4.00;2.50;;;;;;;;;;5014744;28;20439;-70
2023/03/28 13:23:14;;;;;;;2.60;2.07;;;;;;;;;;5013944;28;20467;-70
2023/03/28 13:25:43;;;;;;;4.83;2.50;;;;;;;;;;5015041;28;20944;-70
2023/03/28 13:28:25;;;;;;;3.47;2.20;;;;;;;;;;5014579;28;20460;-70
2023/03/28 13:31:04;;;;;;;10.07;2.78;;;;;;;;;;5013037;28;20200;-70
2023/03/28 13:33:33;;;;;;;5.47;2.93;;;;;;;;;;5014258;28;20181;-72
2023/03/28 13:36:13;;;;;;;6.60;2.30;;;;;;;;;;5015001;28;20483;-70
2023/03/28 13:38:45;;;;;;;5.40;3.27;;;;;;;;;;5014751;28;20511;-69
2023/03/28 13:41:29;;;;;;;5.37;2.93;;;;;;;;;;5014819;28;20436;-69
2023/03/28 13:43:57;;;;;;;4.03;2.87;;;;;;;;;;5014672;28;20440;-69
2023/03/28 13:46:27;;;;;;;7.57;2.67;;;;;;;;;;5014669;28;20794;-69
2023/03/28 13:48:56;;;;;;;9.27;2.87;;;;;;;;;;5014118;28;20501;-69
2023/03/28 13:51:25;;;;;;;5.13;2.87;;;;;;;;;;5013040;28;20437;-70
2023/03/28 13:53:52;;;;;;;5.47;3.20;;;;;;;;;;4994198;28;20511;-69
2023/03/28 13:56:24;;;;;;;3.90;2.40;;;;;;;;;;4994372;28;20489;-69
2023/03/28 13:58:54;;;;;;;8.23;3.77;;;;;;;;;;4993981;28;20432;-70
2023/03/28 14:01:24;;;;;;;8.80;2.70;;;;;;;;;;4993919;28;20481;-69
2023/03/28 14:03:52;;;;;;;5.23;3.07;;;;;;;;;;4994306;28;20433;-68
2023/03/28 14:06:21;;;;;;;6.23;3.07;;;;;;;;;;4994279;28;20441;-69
2023/03/28 14:08:49;;;;;;;7.10;2.90;;;;;;;;;;4993926;28;20454;-79
2023/03/28 14:11:18;;;;;;;6.70;2.77;;;;;;;;;;4994595;28;20541;-70
2023/03/28 14:13:45;;;;;;;6.90;3.80;;;;;;;;;;4994084;28;20451;-69
2023/03/28 14:16:14;;;;;;;4.57;2.50;;;;;;;;;;4994415;28;20438;-69
2023/03/28 14:18:42;;;;;;;4.03;2.93;;;;;;;;;;4994128;28;20949;-69
2023/03/28 14:21:09;;;;;;;7.80;3.23;;;;;;;;;;4994050;28;20952;-69
2023/03/28 14:23:38;;;;;;;6.50;2.90;;;;;;;;;;4993510;28;20579;-70
2023/03/28 14:26:07;;;;;;;5.17;2.73;;;;;;;;;;5005158;28;20805;-71
2023/03/28 14:28:34;;;;;;;3.30;2.87;;;;;;;;;;5013594;28;20452;-70
2023/03/28 14:31:01;;;;;;;4.33;3.07;;;;;;;;;;5013546;28;20447;-70
2023/03/28 14:33:32;;;;;;;5.13;3.00;;;;;;;;;;5013626;28;20441;-70
2023/03/28 14:36:01;;;;;;;7.10;2.93;;;;;;;;;;5013074;28;20487;-70
2023/03/28 14:38:30;;;;;;;6.10;3.90;;;;;;;;;;5013285;28;20598;-70
2023/03/28 14:41:05;;;;;;;5.33;2.77;;;;;;;;;;5013111;28;20448;-69
2023/03/28 14:43:32;;;;;;;6.23;3.07;;;;;;;;;;5013531;28;20582;-69
2023/03/28 14:46:02;;;;;;;5.13;3.30;;;;;;;;;;5013087;28;20482;-69
2023/03/28 14:48:31;;;;;;;6.10;3.33;;;;;;;;;;5013069;28;20447;-67
2023/03/28 14:51:01;;;;;;;4.17;3.23;;;;;;;;;;5012926;28;20447;-67
2023/03/28 14:53:30;;;;;;;6.87;3.87;;;;;;;;;;5013384;28;20476;-67